Tokuyo Maru No21 — JK5540 — position and weather

sailwx.info

Track history (hours):
 
Tides and Currents Weather Stations Pressure Air Temp Water Temp Dewpoint Dewpoint Depression Visibility Wind Speed Wind Dir Waves Ship Positions

Tokuyo Maru No21

Last reported at 2017-Sep-21 02:30 UTC. Time now 2017-Sep-21 03:01 UTC.
Position N 34°36' E 135°23'.

Length 67 m; draft 4.5 m.

Type: Tanker. MMSI: 431401849.

Date/timePositionNaut miles runAvg speedWind from/ knotsBaromVisibWave heightAir tempDewpointWater temp
2017-Sep-21 02:30N 34°36' E 135°23'0 0.0
2017-Sep-21 02:00N 34°36' E 135°23'0 0.0
2017-Sep-21 01:22N 34°36' E 135°23'0 0.0
2017-Sep-21 01:00N 34°36' E 135°23'0 0.0
2017-Sep-21 00:30N 34°36' E 135°23'0 0.1
2017-Sep-20 23:59N 34°36' E 135°23'511.1
2017-Sep-20 23:30N 34°33' E 135°18'611.8
2017-Sep-20 23:00N 34°28' E 135°13'712.3
2017-Sep-20 22:26N 34°23' E 135°08'813.0
2017-Sep-20 21:50N 34°16' E 135°03'413.1
2017-Sep-20 21:30N 34°12' E 135°03'713.1
2017-Sep-20 20:59N 34°05' E 135°02'225 5.9
2017-Sep-19 07:07N 34°59' E 139°27'2 9.9
2017-Sep-19 06:58N 34°60' E 139°28'510.3
2017-Sep-19 06:28N 35°03' E 139°33'511.1
2017-Sep-19 05:58N 35°06' E 139°39'511.5
2017-Sep-19 05:30N 35°09' E 139°44'611.6
2017-Sep-19 05:00N 35°14' E 139°46'611.1
2017-Sep-19 04:31N 35°19' E 139°43'611.1
2017-Sep-19 04:01N 35°25' E 139°44'612.5
2017-Sep-19 03:30N 35°29' E 139°50'13 5.1
2017-Sep-19 00:56N 35°33' E 140°05'5 2.6
2017-Sep-18 22:53N 35°32' E 139°59'3 8.0
2017-Sep-18 22:29N 35°33' E 139°55'0 0.0
2017-Sep-18 13:54N 35°33' E 139°55'0 0.0
2017-Sep-18 13:25N 35°33' E 139°55'0 0.0
2017-Sep-18 13:00N 35°33' E 139°55'0 0.0
2017-Sep-18 12:30N 35°33' E 139°55'0 0.0
2017-Sep-18 12:01N 35°33' E 139°55'0 0.0
2017-Sep-18 11:31N 35°33' E 139°55'0 0.0
2017-Sep-18 11:00N 35°33' E 139°55'0 0.0
2017-Sep-18 10:30N 35°33' E 139°55'0 0.0
2017-Sep-18 10:01N 35°33' E 139°55'0 0.0
2017-Sep-18 09:30N 35°33' E 139°55'0 0.0
2017-Sep-18 09:01N 35°33' E 139°55'0 0.1
2017-Sep-18 08:31N 35°33' E 139°55'0 0.0
2017-Sep-18 08:00N 35°33' E 139°55'0 0.0
2017-Sep-18 07:30N 35°33' E 139°55'0 0.1
2017-Sep-18 07:00N 35°33' E 139°55'0 0.0
2017-Sep-18 06:26N 35°33' E 139°55'0 0.0
2017-Sep-18 05:53N 35°33' E 139°55'0 0.0
2017-Sep-18 05:29N 35°33' E 139°55'0 0.0
2017-Sep-18 04:42N 35°33' E 139°55'0 0.0
2017-Sep-18 04:30N 35°33' E 139°55'0 0.0
2017-Sep-18 04:00N 35°33' E 139°55'0 0.0
2017-Sep-18 03:27N 35°33' E 139°55'0 0.0
2017-Sep-18 02:43N 35°33' E 139°55'0 0.0
2017-Sep-18 01:59N 35°33' E 139°55'0 0.0
2017-Sep-18 01:28N 35°33' E 139°55'0 0.0
2017-Sep-18 00:19N 35°33' E 139°55'0 0.0
2017-Sep-17 23:56N 35°33' E 139°55'0 0.0
2017-Sep-17 23:16N 35°33' E 139°55'0 0.0
2017-Sep-17 22:56N 35°33' E 139°55'0 0.1
2017-Sep-17 22:25N 35°33' E 139°55'0 0.0
2017-Sep-17 21:57N 35°33' E 139°55'0 0.1
2017-Sep-17 21:31N 35°33' E 139°55'0 0.0
2017-Sep-17 21:00N 35°33' E 139°55'0 0.0
2017-Sep-17 20:30N 35°33' E 139°55'0 0.0
2017-Sep-17 19:52N 35°33' E 139°55'0 0.0
2017-Sep-17 19:29N 35°33' E 139°55'0 0.0
2017-Sep-17 18:55N 35°33' E 139°55'0 0.0
2017-Sep-17 18:27N 35°33' E 139°55'0 0.1
2017-Sep-17 17:59N 35°33' E 139°55'0 0.0
2017-Sep-17 17:31N 35°33' E 139°55'0 0.0
2017-Sep-17 17:00N 35°33' E 139°55'0 0.1
2017-Sep-17 16:26N 35°33' E 139°55'0 0.0
2017-Sep-17 15:59N 35°33' E 139°55'0 0.1
2017-Sep-17 15:30N 35°33' E 139°55'0 0.0
2017-Sep-17 14:34N 35°33' E 139°55'0 0.0
2017-Sep-17 12:33N 35°33' E 139°55'0 0.0
2017-Sep-17 12:18N 35°33' E 139°55'0 0.0
2017-Sep-17 11:55N 35°33' E 139°55'0 0.0
2017-Sep-17 11:27N 35°33' E 139°55'0 0.0
2017-Sep-17 07:52N 35°33' E 139°55'0 0.0
2017-Sep-17 07:29N 35°33' E 139°55'0 0.0
2017-Sep-17 05:20N 35°33' E 139°55'0 0.1
2017-Sep-17 04:59N 35°33' E 139°55'0 0.0
2017-Sep-17 04:30N 35°33' E 139°55'0 0.0
2017-Sep-17 04:00N 35°33' E 139°55'0 0.0
2017-Sep-17 03:30N 35°33' E 139°55'0 0.1
2017-Sep-17 03:00N 35°33' E 139°55'0 0.0
2017-Sep-17 02:26N 35°33' E 139°55'0 0.0
2017-Sep-17 01:44N 35°33' E 139°55'0 0.0
2017-Sep-17 01:09N 35°33' E 139°55'0 0.0
2017-Sep-17 01:00N 35°33' E 139°55'0 0.0
2017-Sep-17 00:05N 35°33' E 139°55'0 0.0
2017-Sep-17 00:00N 35°33' E 139°55'0 0.0
2017-Sep-16 23:01N 35°33' E 139°55'0 0.0
2017-Sep-16 22:55N 35°33' E 139°55'1 1.4
2017-Sep-16 22:16N 35°32' E 139°54'311.9
2017-Sep-16 22:00N 35°29' E 139°52'611.5
2017-Sep-16 21:30N 35°25' E 139°47'611.4
2017-Sep-16 21:00N 35°20' E 139°44'510.8
2017-Sep-16 20:30N 35°15' E 139°47'611.8
2017-Sep-16 20:00N 35°09' E 139°46'612.3
2017-Sep-16 19:30N 35°04' E 139°42'713.4
2017-Sep-16 19:00N 35°00' E 139°35'232 6.5
2017-Sep-15 07:19N 34°05' E 135°02'412.7
2017-Sep-15 06:59N 34°10' E 135°02'612.2
2017-Sep-15 06:30N 34°15' E 135°03'1111.9
2017-Sep-15 05:35N 34°25' E 135°10'412.8
2017-Sep-15 05:18N 34°28' E 135°12'412.8
2017-Sep-15 04:58N 34°31' E 135°16'511.4
2017-Sep-15 04:30N 34°35' E 135°19'0 0.4
2017-Sep-15 04:00N 34°35' E 135°19'0 0.0
2017-Sep-15 03:30N 34°35' E 135°19'3 5.3
2017-Sep-15 03:00N 34°36' E 135°22'3 0.7
2017-Sep-14 22:32N 34°34' E 135°26'0 3.6
2017-Sep-14 22:30N 34°35' E 135°26'4 8.3
2017-Sep-14 22:00N 34°36' E 135°21'612.3
2017-Sep-14 21:30N 34°35' E 135°13'612.6
2017-Sep-14 21:01N 34°35' E 135°06'611.4
2017-Sep-14 20:28N 34°37' E 134°59'  
Track history (hours):
 
Tides and Currents Weather Stations Pressure Air Temp Water Temp Dewpoint Dewpoint Depression Visibility Wind Speed Wind Dir Waves Ship Positions

Tokuyo Maru No21

Last reported at 2017-Sep-21 02:30 UTC. Time now 2017-Sep-21 03:01 UTC.
Position N 34°36' E 135°23'.

Length 67 m; draft 4.5 m.

Type: Tanker. MMSI: 431401849.

Date/timePositionNaut miles runAvg speedWind from/ knotsBaromVisibWave heightAir tempDewpointWater temp
2017-Sep-21 02:30N 34°36' E 135°23'0 0.0
2017-Sep-21 02:00N 34°36' E 135°23'0 0.0
2017-Sep-21 01:22N 34°36' E 135°23'0 0.0
2017-Sep-21 01:00N 34°36' E 135°23'0 0.0
2017-Sep-21 00:30N 34°36' E 135°23'0 0.1
2017-Sep-20 23:59N 34°36' E 135°23'511.1
2017-Sep-20 23:30N 34°33' E 135°18'611.8
2017-Sep-20 23:00N 34°28' E 135°13'712.3
2017-Sep-20 22:26N 34°23' E 135°08'813.0
2017-Sep-20 21:50N 34°16' E 135°03'413.1
2017-Sep-20 21:30N 34°12' E 135°03'713.1
2017-Sep-20 20:59N 34°05' E 135°02'225 5.9
2017-Sep-19 07:07N 34°59' E 139°27'2 9.9
2017-Sep-19 06:58N 34°60' E 139°28'510.3
2017-Sep-19 06:28N 35°03' E 139°33'511.1
2017-Sep-19 05:58N 35°06' E 139°39'511.5
2017-Sep-19 05:30N 35°09' E 139°44'611.6
2017-Sep-19 05:00N 35°14' E 139°46'611.1
2017-Sep-19 04:31N 35°19' E 139°43'611.1
2017-Sep-19 04:01N 35°25' E 139°44'612.5
2017-Sep-19 03:30N 35°29' E 139°50'13 5.1
2017-Sep-19 00:56N 35°33' E 140°05'5 2.6
2017-Sep-18 22:53N 35°32' E 139°59'3 8.0
2017-Sep-18 22:29N 35°33' E 139°55'0 0.0
2017-Sep-18 13:54N 35°33' E 139°55'0 0.0
2017-Sep-18 13:25N 35°33' E 139°55'0 0.0
2017-Sep-18 13:00N 35°33' E 139°55'0 0.0
2017-Sep-18 12:30N 35°33' E 139°55'0 0.0
2017-Sep-18 12:01N 35°33' E 139°55'0 0.0
2017-Sep-18 11:31N 35°33' E 139°55'0 0.0
2017-Sep-18 11:00N 35°33' E 139°55'0 0.0
2017-Sep-18 10:30N 35°33' E 139°55'0 0.0
2017-Sep-18 10:01N 35°33' E 139°55'0 0.0
2017-Sep-18 09:30N 35°33' E 139°55'0 0.0
2017-Sep-18 09:01N 35°33' E 139°55'0 0.1
2017-Sep-18 08:31N 35°33' E 139°55'0 0.0
2017-Sep-18 08:00N 35°33' E 139°55'0 0.0
2017-Sep-18 07:30N 35°33' E 139°55'0 0.1
2017-Sep-18 07:00N 35°33' E 139°55'0 0.0
2017-Sep-18 06:26N 35°33' E 139°55'0 0.0
2017-Sep-18 05:53N 35°33' E 139°55'0 0.0
2017-Sep-18 05:29N 35°33' E 139°55'0 0.0
2017-Sep-18 04:42N 35°33' E 139°55'0 0.0
2017-Sep-18 04:30N 35°33' E 139°55'0 0.0
2017-Sep-18 04:00N 35°33' E 139°55'0 0.0
2017-Sep-18 03:27N 35°33' E 139°55'0 0.0
2017-Sep-18 02:43N 35°33' E 139°55'0 0.0
2017-Sep-18 01:59N 35°33' E 139°55'0 0.0
2017-Sep-18 01:28N 35°33' E 139°55'0 0.0
2017-Sep-18 00:19N 35°33' E 139°55'0 0.0
2017-Sep-17 23:56N 35°33' E 139°55'0 0.0
2017-Sep-17 23:16N 35°33' E 139°55'0 0.0
2017-Sep-17 22:56N 35°33' E 139°55'0 0.1
2017-Sep-17 22:25N 35°33' E 139°55'0 0.0
2017-Sep-17 21:57N 35°33' E 139°55'0 0.1
2017-Sep-17 21:31N 35°33' E 139°55'0 0.0
2017-Sep-17 21:00N 35°33' E 139°55'0 0.0
2017-Sep-17 20:30N 35°33' E 139°55'0 0.0
2017-Sep-17 19:52N 35°33' E 139°55'0 0.0
2017-Sep-17 19:29N 35°33' E 139°55'0 0.0
2017-Sep-17 18:55N 35°33' E 139°55'0 0.0
2017-Sep-17 18:27N 35°33' E 139°55'0 0.1
2017-Sep-17 17:59N 35°33' E 139°55'0 0.0
2017-Sep-17 17:31N 35°33' E 139°55'0 0.0
2017-Sep-17 17:00N 35°33' E 139°55'0 0.1
2017-Sep-17 16:26N 35°33' E 139°55'0 0.0
2017-Sep-17 15:59N 35°33' E 139°55'0 0.1
2017-Sep-17 15:30N 35°33' E 139°55'0 0.0
2017-Sep-17 14:34N 35°33' E 139°55'0 0.0
2017-Sep-17 12:33N 35°33' E 139°55'0 0.0
2017-Sep-17 12:18N 35°33' E 139°55'0 0.0
2017-Sep-17 11:55N 35°33' E 139°55'0 0.0
2017-Sep-17 11:27N 35°33' E 139°55'0 0.0
2017-Sep-17 07:52N 35°33' E 139°55'0 0.0
2017-Sep-17 07:29N 35°33' E 139°55'0 0.0
2017-Sep-17 05:20N 35°33' E 139°55'0 0.1
2017-Sep-17 04:59N 35°33' E 139°55'0 0.0
2017-Sep-17 04:30N 35°33' E 139°55'0 0.0
2017-Sep-17 04:00N 35°33' E 139°55'0 0.0
2017-Sep-17 03:30N 35°33' E 139°55'0 0.1
2017-Sep-17 03:00N 35°33' E 139°55'0 0.0
2017-Sep-17 02:26N 35°33' E 139°55'0 0.0
2017-Sep-17 01:44N 35°33' E 139°55'0 0.0
2017-Sep-17 01:09N 35°33' E 139°55'0 0.0
2017-Sep-17 01:00N 35°33' E 139°55'0 0.0
2017-Sep-17 00:05N 35°33' E 139°55'0 0.0
2017-Sep-17 00:00N 35°33' E 139°55'0 0.0
2017-Sep-16 23:01N 35°33' E 139°55'0 0.0
2017-Sep-16 22:55N 35°33' E 139°55'1 1.4
2017-Sep-16 22:16N 35°32' E 139°54'311.9
2017-Sep-16 22:00N 35°29' E 139°52'611.5
2017-Sep-16 21:30N 35°25' E 139°47'611.4
2017-Sep-16 21:00N 35°20' E 139°44'510.8
2017-Sep-16 20:30N 35°15' E 139°47'611.8
2017-Sep-16 20:00N 35°09' E 139°46'612.3
2017-Sep-16 19:30N 35°04' E 139°42'713.4
2017-Sep-16 19:00N 35°00' E 139°35'232 6.5
2017-Sep-15 07:19N 34°05' E 135°02'412.7
2017-Sep-15 06:59N 34°10' E 135°02'612.2
2017-Sep-15 06:30N 34°15' E 135°03'1111.9
2017-Sep-15 05:35N 34°25' E 135°10'412.8
2017-Sep-15 05:18N 34°28' E 135°12'412.8
2017-Sep-15 04:58N 34°31' E 135°16'511.4
2017-Sep-15 04:30N 34°35' E 135°19'0 0.4
2017-Sep-15 04:00N 34°35' E 135°19'0 0.0
2017-Sep-15 03:30N 34°35' E 135°19'3 5.3
2017-Sep-15 03:00N 34°36' E 135°22'3 0.7
2017-Sep-14 22:32N 34°34' E 135°26'0 3.6
2017-Sep-14 22:30N 34°35' E 135°26'4 8.3
2017-Sep-14 22:00N 34°36' E 135°21'612.3
2017-Sep-14 21:30N 34°35' E 135°13'612.6
2017-Sep-14 21:01N 34°35' E 135°06'611.4
2017-Sep-14 20:28N 34°37' E 134°59'  

Dump ship's entire track history